Vremea acum in Oltenița - Romania

Vrei sa afli care e starea vremii acum in Calarasi - Romania? Dorim sa iti furnizam starea vremii pentru Calarasi - Romania. Starea vremii Calarasi - Romania pentru astazi.

Vremea acum in Oltenița

Temperatura: 10.1 °C

Este: Senin
Se simte ca: 9.4 °C
Innorat: 23 %
Precipitatii: 0 %
Presiune atmosferica: 1017 hPa
Umiditate: 84%
Vizibilitate: 10 km
Vantul bate din S cu 6.5 km/h

Evolutia vremii in Oltenița pe ore

Ora: 04:00
Senin
Temperatura: 10.1°C
Sansa de precipitatii: 0%
Ora Descriere Temp Se simte Precipitatii Umiditate Vant
00:00Senin11.6°11°0%80%SSE 7.6 KM/H
01:00Senin10.9°10.6°0%81%S 5.4 KM/H
02:00Senin11.1°10.4°0%80%SSE 7.2 KM/H
03:00Senin10.5°9.7°0%82%SSE 7.6 KM/H
04:00Senin10.1°9.4°0%84%S 6.5 KM/H
05:00Senin9.8°8.9°0%86%S 7.2 KM/H
06:00Senin9.6°0%87%S 6.1 KM/H
07:00Senin10.6°10.1°0%86%S 6.1 KM/H
08:00Senin12.5°12.6°0%78%S 5 KM/H
09:00Senin14.8°15.6°0%71%SSW 3.2 KM/H
10:00Senin16.8°16.8°0%62%ESE 3.2 KM/H
11:00Senin18.3°18.3°0%55%ESE 5.8 KM/H
12:00Senin19.5°19.5°0%50%ESE 7.2 KM/H
13:00Senin20.2°20.2°0%47%ESE 8.3 KM/H
14:00Senin20.7°20.7°0%45%E 8.6 KM/H
15:00Senin21°21°0%44%E 8.3 KM/H
16:00Senin21.2°21.2°0%44%ESE 7.9 KM/H
17:00Senin21.1°21.1°0%45%ESE 7.2 KM/H
18:00Senin20.7°20.7°0%47%ESE 7.9 KM/H
19:00Senin19.2°19.2°0%61%SE 10.1 KM/H
20:00Senin16.7°16.7°0%66%SSE 12.2 KM/H
21:00Patchy rain nearby15.1°15.1°64%66%SE 13.3 KM/H
22:00Senin14.2°13.2°0%68%SSE 13.7 KM/H
23:00Senin13.4°12.3°0%71%SSE 14 KM/H




tutorials